Time;durP1;ratioP1;P1;durP2;ratioP2;P2;SDS_P1;SDS_P2;PMS_P1;PMS_P2;Temp;Humidity;BMP_temperature;BMP_pressure;BME280_temperature;BME280_humidity;BME280_pressure;Samples;Min_cycle;Max_cycle;Signal;HPM_P1;HPM_P2
2023/09/09 00:01:07;;;;;;;195.48;15.07;;;;;;;;;;5093585;28;20058;-35
2023/09/09 00:03:34;;;;;;;196.95;15.70;;;;;;;;;;5093245;28;21311;-44
2023/09/09 00:06:11;;;;;;;174.55;14.65;;;;;;;;;;5092986;28;20046;-46
2023/09/09 00:08:38;;;;;;;184.93;15.52;;;;;;;;;;5092992;28;20146;-41
2023/09/09 00:11:05;;;;;;;158.52;14.88;;;;;;;;;;5087396;28;20044;-42
2023/09/09 00:13:32;;;;;;;156.82;15.32;;;;;;;;;;5093508;28;20028;-46
2023/09/09 00:15:59;;;;;;;138.65;14.88;;;;;;;;;;5093273;28;20043;-37
2023/09/09 00:18:26;;;;;;;150.40;15.75;;;;;;;;;;5075047;28;20032;-49
2023/09/09 00:20:53;;;;;;;120.68;13.45;;;;;;;;;;5093160;28;20035;-45
2023/09/09 00:23:20;;;;;;;115.15;13.82;;;;;;;;;;5093314;28;20080;-41
2023/09/09 00:25:48;;;;;;;131.40;14.75;;;;;;;;;;5092940;28;20032;-41
2023/09/09 00:28:15;;;;;;;125.88;14.75;;;;;;;;;;5092774;28;20049;-34
2023/09/09 00:30:42;;;;;;;229.65;23.08;;;;;;;;;;5093074;28;20080;-42
2023/09/09 00:33:10;;;;;;;194.18;21.50;;;;;;;;;;5093098;28;20032;-41
2023/09/09 00:35:40;;;;;;;897.88;71.15;;;;;;;;;;5092876;28;20036;-42
2023/09/09 00:38:08;;;;;;;656.63;56.97;;;;;;;;;;5092962;28;20032;-32
2023/09/09 00:40:35;;;;;;;375.13;37.50;;;;;;;;;;5087717;28;20029;-38
2023/09/09 00:43:02;;;;;;;339.77;34.00;;;;;;;;;;5092818;28;20024;-34
2023/09/09 00:45:29;;;;;;;355.77;36.03;;;;;;;;;;5092494;28;20401;-37
2023/09/09 00:47:57;;;;;;;248.35;32.13;;;;;;;;;;5092309;28;20048;-39
2023/09/09 00:50:24;;;;;;;250.32;29.83;;;;;;;;;;5092672;28;20152;-36
2023/09/09 00:52:51;;;;;;;244.68;31.20;;;;;;;;;;5092492;28;20035;-33
2023/09/09 00:55:18;;;;;;;245.20;31.50;;;;;;;;;;5092654;28;20060;-32
2023/09/09 00:57:45;;;;;;;216.90;28.92;;;;;;;;;;5092236;28;20055;-32
2023/09/09 01:00:12;;;;;;;219.48;30.90;;;;;;;;;;5092530;28;20024;-33
2023/09/09 01:02:40;;;;;;;206.10;27.52;;;;;;;;;;5092363;28;20099;-36
2023/09/09 01:05:08;;;;;;;171.93;26.58;;;;;;;;;;5092397;28;20032;-34
2023/09/09 01:07:46;;;;;;;154.68;26.17;;;;;;;;;;5092175;28;20119;-33
2023/09/09 01:10:14;;;;;;;162.85;26.73;;;;;;;;;;5092368;28;20036;-37
2023/09/09 01:12:44;;;;;;;139.63;24.42;;;;;;;;;;5092101;28;20031;-36
2023/09/09 01:15:12;;;;;;;147.85;24.23;;;;;;;;;;5090917;28;20034;-33
2023/09/09 01:17:39;;;;;;;138.10;24.60;;;;;;;;;;5091860;28;20095;-35
2023/09/09 01:20:16;;;;;;;128.25;23.48;;;;;;;;;;5091719;28;20051;-33
2023/09/09 01:22:50;;;;;;;134.82;22.17;;;;;;;;;;5091249;28;20394;-36
2023/09/09 01:25:17;;;;;;;121.43;23.45;;;;;;;;;;5091885;28;20027;-34
2023/09/09 01:27:44;;;;;;;106.90;21.38;;;;;;;;;;5091910;28;20383;-32
2023/09/09 01:30:11;;;;;;;100.97;21.80;;;;;;;;;;5091776;28;20062;-36
2023/09/09 01:32:39;;;;;;;105.63;22.27;;;;;;;;;;5091891;28;20024;-33
2023/09/09 01:35:06;;;;;;;94.80;21.65;;;;;;;;;;5090658;28;20123;-33
2023/09/09 01:37:34;;;;;;;88.95;21.05;;;;;;;;;;5091501;28;20032;-34
2023/09/09 01:40:10;;;;;;;87.25;20.58;;;;;;;;;;5090741;28;20509;-33
2023/09/09 01:42:38;;;;;;;97.18;19.90;;;;;;;;;;5091688;28;20063;-34
2023/09/09 01:45:05;;;;;;;92.15;19.42;;;;;;;;;;5091315;28;20036;-34
2023/09/09 01:47:32;;;;;;;96.75;20.92;;;;;;;;;;5091421;28;20094;-33
2023/09/09 01:49:59;;;;;;;95.40;20.13;;;;;;;;;;5091445;28;20028;-36
2023/09/09 01:52:26;;;;;;;89.50;18.65;;;;;;;;;;5089216;28;20032;-31
2023/09/09 01:54:53;;;;;;;71.68;18.50;;;;;;;;;;5091118;28;20078;-34
2023/09/09 01:57:21;;;;;;;75.45;18.75;;;;;;;;;;5090991;28;20027;-34
2023/09/09 01:59:49;;;;;;;74.95;17.27;;;;;;;;;;5090519;28;20103;-33
2023/09/09 02:02:16;;;;;;;73.55;18.83;;;;;;;;;;5091199;28;20035;-34
2023/09/09 02:04:43;;;;;;;75.47;17.58;;;;;;;;;;5090406;28;20024;-32
2023/09/09 02:07:10;;;;;;;73.45;18.40;;;;;;;;;;5090652;28;20063;-32
2023/09/09 02:09:37;;;;;;;59.63;17.38;;;;;;;;;;5071608;28;20444;-32
2023/09/09 02:12:04;;;;;;;67.28;16.98;;;;;;;;;;5090626;28;20110;-34
2023/09/09 02:14:32;;;;;;;70.50;16.95;;;;;;;;;;5076372;28;20028;-34
2023/09/09 02:16:59;;;;;;;58.80;16.05;;;;;;;;;;5091125;28;20697;-31
2023/09/09 02:19:26;;;;;;;64.43;16.20;;;;;;;;;;5091068;28;20043;-32
2023/09/09 02:21:53;;;;;;;65.25;15.48;;;;;;;;;;5091274;28;20028;-32
2023/09/09 02:24:20;;;;;;;57.13;13.85;;;;;;;;;;5091269;28;20057;-32
2023/09/09 02:26:47;;;;;;;53.95;13.95;;;;;;;;;;5091091;28;20474;-32
2023/09/09 02:29:14;;;;;;;43.38;12.90;;;;;;;;;;5091059;28;20032;-31
2023/09/09 02:31:41;;;;;;;176.93;20.33;;;;;;;;;;5091231;28;20036;-35
2023/09/09 02:34:08;;;;;;;49.83;12.27;;;;;;;;;;5091011;28;20028;-34
2023/09/09 02:36:35;;;;;;;47.55;13.50;;;;;;;;;;5072946;28;20032;-34
2023/09/09 02:39:02;;;;;;;48.05;11.82;;;;;;;;;;5090962;28;20028;-33
2023/09/09 02:41:30;;;;;;;49.22;13.98;;;;;;;;;;5090948;28;20117;-35
2023/09/09 02:43:57;;;;;;;45.55;12.77;;;;;;;;;;5091151;28;20047;-34
2023/09/09 02:46:24;;;;;;;45.38;14.15;;;;;;;;;;5089647;28;20725;-31
2023/09/09 02:48:51;;;;;;;49.97;14.23;;;;;;;;;;5094353;28;20039;-34
2023/09/09 02:51:18;;;;;;;44.50;14.10;;;;;;;;;;5094594;28;20039;-35
2023/09/09 02:53:45;;;;;;;48.38;14.30;;;;;;;;;;5091346;28;20524;-35
2023/09/09 02:56:12;;;;;;;43.63;14.55;;;;;;;;;;5094315;28;20040;-34
2023/09/09 02:58:39;;;;;;;49.05;14.48;;;;;;;;;;5094242;28;20024;-35
2023/09/09 03:01:06;;;;;;;40.85;13.23;;;;;;;;;;5094432;28;20030;-33
2023/09/09 03:03:36;;;;;;;41.03;13.65;;;;;;;;;;5094179;28;20043;-31
2023/09/09 03:06:03;;;;;;;41.63;14.02;;;;;;;;;;5094394;28;20093;-36
2023/09/09 03:08:30;;;;;;;39.58;13.52;;;;;;;;;;5094107;28;20050;-32
2023/09/09 03:10:57;;;;;;;43.83;13.85;;;;;;;;;;5092580;28;20024;-32
2023/09/09 03:13:24;;;;;;;35.53;13.65;;;;;;;;;;5094289;28;20035;-35
2023/09/09 03:15:51;;;;;;;41.53;14.02;;;;;;;;;;5091599;28;20371;-33
2023/09/09 03:18:18;;;;;;;40.30;14.82;;;;;;;;;;5094718;28;20028;-31
2023/09/09 03:20:45;;;;;;;39.00;15.43;;;;;;;;;;5094783;28;20044;-34
2023/09/09 03:23:12;;;;;;;39.08;15.88;;;;;;;;;;5094580;28;20115;-34
2023/09/09 03:25:39;;;;;;;34.97;14.40;;;;;;;;;;5094492;28;20103;-34
2023/09/09 03:28:06;;;;;;;40.03;14.65;;;;;;;;;;5094597;28;20024;-32
2023/09/09 03:30:53;;;;;;;36.75;14.70;;;;;;;;;;5094508;28;20028;-34
2023/09/09 03:33:20;;;;;;;39.05;15.40;;;;;;;;;;5094441;28;20043;-34
2023/09/09 03:35:47;;;;;;;47.63;15.95;;;;;;;;;;5094030;28;20031;-35
2023/09/09 03:38:14;;;;;;;38.88;15.77;;;;;;;;;;5094324;28;20537;-32
2023/09/09 03:40:44;;;;;;;43.75;16.05;;;;;;;;;;5094389;28;20060;-34
2023/09/09 03:43:12;;;;;;;43.08;17.63;;;;;;;;;;5094206;28;20030;-34
2023/09/09 03:45:39;;;;;;;37.90;15.82;;;;;;;;;;5094093;28;20111;-32
2023/09/09 03:48:06;;;;;;;43.40;16.52;;;;;;;;;;5094040;28;20100;-34
2023/09/09 03:50:34;;;;;;;42.95;15.52;;;;;;;;;;5094136;28;20067;-32
2023/09/09 03:53:01;;;;;;;37.63;16.63;;;;;;;;;;5094237;28;20556;-32
2023/09/09 03:55:27;;;;;;;37.15;16.80;;;;;;;;;;5075659;28;20486;-33
2023/09/09 03:57:54;;;;;;;43.30;15.55;;;;;;;;;;5093567;28;20054;-34
2023/09/09 04:00:21;;;;;;;42.05;15.90;;;;;;;;;;5094040;28;20114;-32
2023/09/09 04:02:50;;;;;;;42.13;16.83;;;;;;;;;;5094114;28;20035;-36
2023/09/09 04:05:17;;;;;;;48.08;17.27;;;;;;;;;;5093622;28;20036;-32
2023/09/09 04:07:44;;;;;;;40.13;16.00;;;;;;;;;;5093639;28;20016;-35
2023/09/09 04:10:12;;;;;;;43.17;16.30;;;;;;;;;;5093840;28;20036;-31
2023/09/09 04:12:39;;;;;;;35.13;16.10;;;;;;;;;;5093525;28;20052;-34
2023/09/09 04:15:09;;;;;;;30.10;14.80;;;;;;;;;;5073567;28;20028;-32
2023/09/09 04:17:36;;;;;;;41.33;16.35;;;;;;;;;;5073275;28;20025;-32
2023/09/09 04:20:03;;;;;;;32.20;14.70;;;;;;;;;;5073373;28;20229;-32
2023/09/09 04:22:30;;;;;;;36.08;15.35;;;;;;;;;;5073326;28;20033;-32
2023/09/09 04:24:57;;;;;;;37.45;15.40;;;;;;;;;;5073283;28;20029;-33
2023/09/09 04:27:24;;;;;;;33.83;15.77;;;;;;;;;;5073299;28;20440;-33
2023/09/09 04:29:51;;;;;;;31.33;15.50;;;;;;;;;;5073116;28;20049;-33
2023/09/09 04:32:18;;;;;;;37.33;15.50;;;;;;;;;;5073295;28;20033;-32
2023/09/09 04:34:46;;;;;;;32.78;14.35;;;;;;;;;;5073116;28;20056;-32
2023/09/09 04:37:14;;;;;;;34.17;15.23;;;;;;;;;;5073102;28;20098;-33
2023/09/09 04:39:41;;;;;;;33.65;15.10;;;;;;;;;;5072905;28;20226;-31
2023/09/09 04:42:08;;;;;;;30.45;13.57;;;;;;;;;;5072949;28;20051;-32
2023/09/09 04:44:35;;;;;;;30.52;13.90;;;;;;;;;;5072564;28;20033;-34
2023/09/09 04:47:02;;;;;;;29.65;13.65;;;;;;;;;;5072702;28;20057;-33
2023/09/09 04:49:29;;;;;;;34.83;13.93;;;;;;;;;;5072834;28;20066;-33
2023/09/09 04:51:56;;;;;;;28.77;13.82;;;;;;;;;;5072752;28;20086;-32
2023/09/09 04:54:23;;;;;;;28.70;13.73;;;;;;;;;;5072553;28;20025;-32
2023/09/09 04:56:50;;;;;;;30.45;13.07;;;;;;;;;;5072670;28;20041;-34
2023/09/09 04:59:17;;;;;;;32.75;13.57;;;;;;;;;;5072684;28;20107;-34
2023/09/09 05:01:44;;;;;;;28.35;12.73;;;;;;;;;;5072671;28;20028;-31
2023/09/09 05:04:11;;;;;;;32.67;13.70;;;;;;;;;;5072407;28;20029;-33
2023/09/09 05:06:38;;;;;;;27.20;13.02;;;;;;;;;;5072235;28;20029;-32
2023/09/09 05:09:05;;;;;;;24.75;12.15;;;;;;;;;;5071926;28;20050;-32
2023/09/09 05:11:32;;;;;;;27.50;12.13;;;;;;;;;;5072114;28;20032;-34
2023/09/09 05:13:59;;;;;;;24.98;11.93;;;;;;;;;;5072399;28;20031;-32
2023/09/09 05:16:26;;;;;;;28.58;13.20;;;;;;;;;;5072268;28;20040;-34
2023/09/09 05:18:53;;;;;;;26.30;11.35;;;;;;;;;;5072145;28;20548;-32
2023/09/09 05:21:20;;;;;;;28.77;12.77;;;;;;;;;;5072130;28;20048;-33
2023/09/09 05:23:47;;;;;;;29.02;12.50;;;;;;;;;;5072162;28;20031;-34
2023/09/09 05:26:14;;;;;;;49.50;12.25;;;;;;;;;;5054123;28;20032;-32
2023/09/09 05:28:41;;;;;;;25.20;11.38;;;;;;;;;;5072109;28;20021;-32
2023/09/09 05:31:08;;;;;;;30.58;11.65;;;;;;;;;;5072124;28;20491;-35
2023/09/09 05:33:35;;;;;;;25.15;11.15;;;;;;;;;;5071970;28;20029;-32
2023/09/09 05:36:02;;;;;;;33.97;12.15;;;;;;;;;;5071932;28;20073;-33
2023/09/09 05:38:29;;;;;;;24.38;11.73;;;;;;;;;;5071935;28;20103;-35
2023/09/09 05:40:56;;;;;;;27.88;10.98;;;;;;;;;;5071889;28;20517;-32
2023/09/09 05:43:23;;;;;;;24.10;11.52;;;;;;;;;;5071877;28;20024;-33
2023/09/09 05:45:50;;;;;;;21.33;10.55;;;;;;;;;;5071791;28;20028;-34
2023/09/09 05:48:17;;;;;;;24.40;11.35;;;;;;;;;;5071667;28;20070;-35
2023/09/09 05:50:44;;;;;;;21.38;10.82;;;;;;;;;;5071750;28;20036;-37
2023/09/09 05:53:12;;;;;;;23.17;10.82;;;;;;;;;;5071840;28;20040;-33
2023/09/09 05:55:39;;;;;;;24.05;10.73;;;;;;;;;;5071600;28;20478;-36
2023/09/09 05:58:07;;;;;;;22.95;10.68;;;;;;;;;;5071677;28;20115;-33
2023/09/09 06:00:34;;;;;;;21.48;10.82;;;;;;;;;;5071611;28;20414;-35
2023/09/09 06:03:01;;;;;;;20.73;10.02;;;;;;;;;;5086013;28;20028;-35
2023/09/09 06:05:28;;;;;;;23.73;10.23;;;;;;;;;;5091665;28;20054;-33
2023/09/09 06:07:54;;;;;;;21.88;9.85;;;;;;;;;;5091710;28;20031;-32
2023/09/09 06:10:21;;;;;;;20.63;9.80;;;;;;;;;;5091705;28;20032;-33
2023/09/09 06:12:48;;;;;;;19.70;9.68;;;;;;;;;;5091781;28;20049;-36
2023/09/09 06:15:15;;;;;;;18.90;9.70;;;;;;;;;;5091653;28;20435;-34
2023/09/09 06:17:42;;;;;;;24.25;9.70;;;;;;;;;;5091721;28;20024;-33
2023/09/09 06:20:10;;;;;;;18.52;9.32;;;;;;;;;;5091588;28;20032;-36
2023/09/09 06:22:37;;;;;;;16.45;9.30;;;;;;;;;;5097875;28;20035;-35
2023/09/09 06:25:04;;;;;;;21.92;9.55;;;;;;;;;;5098201;28;20032;-31
2023/09/09 06:27:31;;;;;;;19.85;9.10;;;;;;;;;;5098365;28;20070;-32
2023/09/09 06:29:58;;;;;;;19.35;9.05;;;;;;;;;;5097990;28;20035;-34
2023/09/09 06:32:25;;;;;;;17.95;8.18;;;;;;;;;;5098101;28;20036;-34
2023/09/09 06:34:52;;;;;;;21.77;9.18;;;;;;;;;;5098082;28;20081;-34
2023/09/09 06:37:19;;;;;;;14.68;7.85;;;;;;;;;;5098088;28;20017;-33
2023/09/09 06:39:46;;;;;;;15.02;8.07;;;;;;;;;;5098244;28;20032;-32
2023/09/09 06:42:13;;;;;;;19.05;8.13;;;;;;;;;;5098216;28;20028;-33
2023/09/09 06:44:40;;;;;;;17.83;8.75;;;;;;;;;;5097572;28;20039;-33
2023/09/09 06:47:10;;;;;;;16.98;7.78;;;;;;;;;;5079927;28;20447;-34
2023/09/09 06:49:37;;;;;;;16.40;7.78;;;;;;;;;;5097967;28;20036;-34
2023/09/09 06:52:04;;;;;;;15.77;7.57;;;;;;;;;;5098105;28;20028;-35
2023/09/09 06:54:31;;;;;;;13.98;7.55;;;;;;;;;;5097997;28;20098;-32
2023/09/09 06:56:58;;;;;;;15.60;7.72;;;;;;;;;;5098047;28;20078;-32
2023/09/09 06:59:24;;;;;;;12.68;6.57;;;;;;;;;;5098115;28;20028;-33
2023/09/09 07:01:51;;;;;;;16.38;7.75;;;;;;;;;;5098023;28;20028;-35
2023/09/09 07:04:18;;;;;;;13.55;7.53;;;;;;;;;;5097950;28;20024;-32
2023/09/09 07:06:45;;;;;;;16.02;7.10;;;;;;;;;;5098016;28;20027;-33
2023/09/09 07:09:12;;;;;;;13.23;6.60;;;;;;;;;;5097894;28;20454;-36
2023/09/09 07:11:41;;;;;;;14.02;7.13;;;;;;;;;;5097912;28;20027;-32
2023/09/09 07:14:08;;;;;;;15.43;6.63;;;;;;;;;;5097638;28;20038;-33
2023/09/09 07:16:35;;;;;;;18.48;6.45;;;;;;;;;;5097934;28;20031;-33
2023/09/09 07:19:02;;;;;;;14.68;7.47;;;;;;;;;;5079671;28;20436;-35
2023/09/09 07:21:29;;;;;;;11.50;6.20;;;;;;;;;;5097821;28;20028;-34
2023/09/09 07:23:56;;;;;;;11.38;6.70;;;;;;;;;;5097837;28;20081;-33
2023/09/09 07:26:23;;;;;;;11.43;6.38;;;;;;;;;;5097667;28;20028;-33
2023/09/09 07:28:50;;;;;;;12.05;6.13;;;;;;;;;;5097696;28;20039;-34
2023/09/09 07:31:17;;;;;;;10.68;5.80;;;;;;;;;;5097806;28;20028;-32
2023/09/09 07:33:44;;;;;;;10.02;5.43;;;;;;;;;;5094349;28;20139;-33
2023/09/09 07:36:11;;;;;;;11.07;5.38;;;;;;;;;;5094448;28;20035;-36
2023/09/09 07:38:38;;;;;;;12.00;5.53;;;;;;;;;;5094396;28;20071;-32
2023/09/09 07:41:05;;;;;;;10.20;5.15;;;;;;;;;;5094415;28;20059;-34
2023/09/09 07:43:32;;;;;;;10.85;5.32;;;;;;;;;;5094392;28;20486;-35
2023/09/09 07:45:59;;;;;;;9.70;4.50;;;;;;;;;;5093980;28;20108;-33
2023/09/09 07:48:26;;;;;;;8.75;5.10;;;;;;;;;;5094094;28;20410;-32
2023/09/09 07:50:54;;;;;;;14.45;5.13;;;;;;;;;;5094280;28;20043;-34
2023/09/09 07:53:21;;;;;;;10.38;4.63;;;;;;;;;;5094169;28;20076;-32
2023/09/09 07:55:49;;;;;;;8.90;4.63;;;;;;;;;;5094085;28;20039;-32
2023/09/09 07:58:16;;;;;;;8.80;4.57;;;;;;;;;;5094096;28;20046;-35
2023/09/09 08:00:44;;;;;;;7.88;4.57;;;;;;;;;;5094181;28;20032;-36
2023/09/09 08:03:11;;;;;;;10.35;4.72;;;;;;;;;;5085863;28;20131;-34
2023/09/09 08:05:38;;;;;;;7.68;4.25;;;;;;;;;;5073693;28;20052;-35
2023/09/09 08:08:07;;;;;;;11.23;4.53;;;;;;;;;;5073631;28;20021;-32
2023/09/09 08:10:36;;;;;;;7.75;4.15;;;;;;;;;;5073504;28;20032;-32
2023/09/09 08:13:03;;;;;;;16.83;3.95;;;;;;;;;;5073528;28;20558;-31
2023/09/09 08:15:30;;;;;;;8.25;3.92;;;;;;;;;;5073500;28;20099;-33
2023/09/09 08:17:57;;;;;;;9.65;4.35;;;;;;;;;;5073411;28;20413;-35
2023/09/09 08:20:24;;;;;;;8.90;4.13;;;;;;;;;;5073480;28;20448;-34
2023/09/09 08:22:51;;;;;;;8.35;3.80;;;;;;;;;;5073397;28;20029;-32
2023/09/09 08:25:18;;;;;;;6.18;3.58;;;;;;;;;;5073217;28;20050;-33
2023/09/09 08:27:45;;;;;;;7.97;3.80;;;;;;;;;;5073316;28;20514;-33
2023/09/09 08:30:13;;;;;;;7.25;3.67;;;;;;;;;;5073161;28;20032;-32
2023/09/09 08:32:40;;;;;;;6.45;3.60;;;;;;;;;;5073450;28;20082;-33
2023/09/09 08:35:08;;;;;;;7.18;3.72;;;;;;;;;;5072974;28;20060;-36
2023/09/09 08:37:35;;;;;;;5.38;3.33;;;;;;;;;;5073089;28;20513;-33
2023/09/09 08:40:02;;;;;;;7.50;3.70;;;;;;;;;;5073133;28;20424;-35
2023/09/09 08:42:47;;;;;;;6.32;3.22;;;;;;;;;;5072995;28;20031;-33
2023/09/09 08:45:33;;;;;;;5.03;2.90;;;;;;;;;;5071681;28;20031;-33
2023/09/09 08:48:04;;;;;;;6.32;3.63;;;;;;;;;;5072523;28;20147;-35
2023/09/09 08:50:32;;;;;;;13.85;3.05;;;;;;;;;;5072819;28;20029;-34
2023/09/09 08:53:02;;;;;;;5.53;3.15;;;;;;;;;;5072673;28;20036;-33
2023/09/09 08:55:29;;;;;;;4.47;3.10;;;;;;;;;;5072739;28;20098;-34
2023/09/09 08:57:56;;;;;;;5.53;3.13;;;;;;;;;;5072731;28;20029;-33
2023/09/09 09:00:24;;;;;;;5.82;3.22;;;;;;;;;;5072667;28;20040;-32
2023/09/09 09:02:51;;;;;;;5.97;3.03;;;;;;;;;;5072484;28;20063;-33
2023/09/09 09:05:18;;;;;;;5.18;2.50;;;;;;;;;;5072603;28;20025;-34
2023/09/09 09:07:45;;;;;;;5.00;2.97;;;;;;;;;;5072344;28;20031;-35
2023/09/09 09:10:12;;;;;;;4.43;2.88;;;;;;;;;;5072453;28;20494;-33
2023/09/09 09:12:41;;;;;;;5.00;2.95;;;;;;;;;;5072605;28;20390;-32
2023/09/09 09:15:10;;;;;;;4.85;2.80;;;;;;;;;;5072288;28;20024;-33
2023/09/09 09:17:42;;;;;;;8.50;3.22;;;;;;;;;;5072372;28;20070;-35
2023/09/09 09:20:29;;;;;;;10.40;2.95;;;;;;;;;;5072301;28;20382;-34
2023/09/09 09:23:00;;;;;;;5.03;2.88;;;;;;;;;;5072208;28;20028;-32
2023/09/09 09:25:27;;;;;;;4.90;2.80;;;;;;;;;;5071939;28;20036;-32
2023/09/09 09:27:58;;;;;;;5.25;2.65;;;;;;;;;;5072120;28;20024;-34
2023/09/09 09:30:25;;;;;;;5.15;2.67;;;;;;;;;;5072055;28;20127;-33
2023/09/09 09:32:53;;;;;;;4.30;2.60;;;;;;;;;;5072067;28;20759;-32
2023/09/09 09:35:26;;;;;;;5.47;3.13;;;;;;;;;;5071948;28;20032;-32
2023/09/09 09:37:57;;;;;;;5.47;2.75;;;;;;;;;;5071888;28;20044;-34
2023/09/09 09:40:25;;;;;;;5.05;2.53;;;;;;;;;;5063250;28;20103;-35
2023/09/09 09:42:52;;;;;;;4.38;2.22;;;;;;;;;;5063825;28;20393;-33
2023/09/09 09:45:24;;;;;;;5.50;2.58;;;;;;;;;;5071689;28;20097;-31
2023/09/09 09:47:51;;;;;;;5.45;2.67;;;;;;;;;;5071708;28;20053;-37
2023/09/09 09:50:30;;;;;;;5.22;2.13;;;;;;;;;;5071797;28;20036;-34
2023/09/09 09:53:04;;;;;;;4.85;2.55;;;;;;;;;;5071784;28;20028;-32
2023/09/09 09:55:35;;;;;;;4.97;2.20;;;;;;;;;;5075178;28;20021;-33
2023/09/09 09:58:03;;;;;;;3.03;2.27;;;;;;;;;;5091953;28;20028;-33
2023/09/09 10:00:30;;;;;;;4.75;2.35;;;;;;;;;;5091824;28;20027;-32
2023/09/09 10:02:59;;;;;;;6.78;2.30;;;;;;;;;;5091875;28;20032;-35
2023/09/09 10:05:26;;;;;;;4.38;2.10;;;;;;;;;;5091723;28;20039;-36
2023/09/09 10:07:55;;;;;;;5.78;2.25;;;;;;;;;;5091848;28;20499;-33
2023/09/09 10:10:26;;;;;;;4.22;2.05;;;;;;;;;;5091689;28;20032;-32
2023/09/09 10:13:02;;;;;;;3.40;1.77;;;;;;;;;;5091828;28;20020;-33
2023/09/09 10:15:30;;;;;;;5.13;1.80;;;;;;;;;;5090916;28;20028;-32
2023/09/09 10:17:58;;;;;;;4.28;1.98;;;;;;;;;;5091689;28;20036;-32
2023/09/09 10:20:25;;;;;;;5.97;1.70;;;;;;;;;;5091697;28;20071;-32
2023/09/09 10:22:59;;;;;;;4.30;2.05;;;;;;;;;;5073396;28;20457;-35
2023/09/09 10:25:26;;;;;;;3.45;1.60;;;;;;;;;;5090972;28;20032;-33
2023/09/09 10:27:54;;;;;;;4.75;1.75;;;;;;;;;;5089726;28;20128;-32
2023/09/09 10:30:21;;;;;;;11.65;2.38;;;;;;;;;;5090820;28;20078;-33
2023/09/09 10:32:48;;;;;;;5.93;1.92;;;;;;;;;;5089497;28;20448;-35
2023/09/09 10:35:16;;;;;;;7.15;1.90;;;;;;;;;;5088803;28;20028;-35
2023/09/09 10:37:44;;;;;;;11.10;2.30;;;;;;;;;;5089705;28;20031;-35
2023/09/09 10:40:11;;;;;;;13.95;2.90;;;;;;;;;;5086615;28;20039;-33
2023/09/09 10:42:39;;;;;;;9.68;2.63;;;;;;;;;;5088181;28;20103;-34
2023/09/09 10:45:38;;;;;;;8.30;2.53;;;;;;;;;;5077045;28;20036;-34
2023/09/09 10:48:07;;;;;;;8.85;2.47;;;;;;;;;;5052645;28;20514;-34
2023/09/09 10:50:53;;;;;;;16.23;3.10;;;;;;;;;;5070538;28;20392;-41
2023/09/09 10:53:23;;;;;;;12.13;2.40;;;;;;;;;;5057161;28;20127;-34
2023/09/09 10:55:53;;;;;;;14.68;2.70;;;;;;;;;;5071016;28;20100;-34
2023/09/09 10:58:21;;;;;;;5.38;2.25;;;;;;;;;;5071016;28;20036;-34
2023/09/09 11:00:50;;;;;;;14.77;3.17;;;;;;;;;;5070931;28;20039;-33
2023/09/09 11:03:24;;;;;;;10.57;2.53;;;;;;;;;;5070960;28;20035;-32
2023/09/09 11:06:05;;;;;;;9.93;2.80;;;;;;;;;;5070840;28;20067;-32
2023/09/09 11:08:35;;;;;;;12.82;2.53;;;;;;;;;;5072712;28;20562;-35
2023/09/09 11:11:20;;;;;;;9.68;2.97;;;;;;;;;;5074204;28;20040;-33
2023/09/09 11:13:47;;;;;;;11.05;2.65;;;;;;;;;;5071432;28;20032;-32
2023/09/09 11:16:31;;;;;;;12.43;2.65;;;;;;;;;;5073834;28;20052;-33
2023/09/09 11:18:58;;;;;;;7.70;2.22;;;;;;;;;;5072678;28;20036;-32
2023/09/09 11:21:26;;;;;;;9.00;1.95;;;;;;;;;;5073739;28;20028;-35
2023/09/09 11:23:53;;;;;;;8.32;2.05;;;;;;;;;;5073771;28;20063;-33
2023/09/09 11:26:20;;;;;;;20.35;3.17;;;;;;;;;;5073592;28;20544;-37
2023/09/09 11:28:48;;;;;;;10.65;2.80;;;;;;;;;;5071055;28;20037;-32
2023/09/09 11:31:16;;;;;;;30.48;3.40;;;;;;;;;;5072993;28;20068;-35
2023/09/09 11:33:43;;;;;;;24.42;3.50;;;;;;;;;;5072196;28;20029;-40
2023/09/09 11:36:10;;;;;;;25.20;3.00;;;;;;;;;;5070792;28;20025;-38
2023/09/09 11:38:40;;;;;;;26.27;3.33;;;;;;;;;;5072893;28;20070;-36
2023/09/09 11:41:08;;;;;;;21.25;3.13;;;;;;;;;;5072728;28;20037;-35
2023/09/09 11:43:35;;;;;;;11.00;2.65;;;;;;;;;;5070769;28;20493;-37
2023/09/09 11:46:02;;;;;;;11.30;2.30;;;;;;;;;;5073010;28;20056;-35
2023/09/09 11:48:29;;;;;;;12.35;2.40;;;;;;;;;;5073168;28;20121;-38
2023/09/09 11:50:56;;;;;;;15.48;1.95;;;;;;;;;;5089735;28;20032;-35
2023/09/09 11:53:23;;;;;;;9.38;1.88;;;;;;;;;;5093144;28;20020;-33
2023/09/09 11:55:54;;;;;;;12.00;2.00;;;;;;;;;;5092816;28;20023;-36
2023/09/09 11:58:21;;;;;;;6.22;1.63;;;;;;;;;;5092783;28;20035;-35
2023/09/09 12:00:49;;;;;;;53.20;5.07;;;;;;;;;;5092397;28;20073;-42
2023/09/09 12:03:23;;;;;;;78.68;6.40;;;;;;;;;;5090627;28;20052;-41
2023/09/09 12:05:52;;;;;;;50.60;5.47;;;;;;;;;;5092116;28;20039;-36
2023/09/09 12:08:19;;;;;;;86.50;7.00;;;;;;;;;;5086770;28;20059;-44
2023/09/09 12:10:46;;;;;;;166.85;18.33;;;;;;;;;;5092582;28;20044;-42
2023/09/09 12:13:13;;;;;;;26.48;2.75;;;;;;;;;;5092528;28;20024;-44
2023/09/09 12:15:42;;;;;;;33.92;3.58;;;;;;;;;;5093557;28;20024;-40
2023/09/09 12:18:11;;;;;;;45.75;4.80;;;;;;;;;;5093242;28;20039;-43
2023/09/09 12:20:58;;;;;;;33.83;4.07;;;;;;;;;;5085209;28;20453;-38
2023/09/09 12:23:29;;;;;;;429.90;28.25;;;;;;;;;;5090946;28;20561;-37
2023/09/09 12:25:56;;;;;;;557.92;42.85;;;;;;;;;;5093227;28;20103;-42
2023/09/09 12:28:23;;;;;;;469.38;39.67;;;;;;;;;;5093482;28;20032;-41
2023/09/09 12:30:51;;;;;;;374.08;53.83;;;;;;;;;;5087166;28;20072;-43
2023/09/09 12:33:19;;;;;;;272.98;27.20;;;;;;;;;;5089983;28;20032;-43
2023/09/09 12:35:47;;;;;;;208.40;24.98;;;;;;;;;;5084228;28;20068;-42
2023/09/09 12:38:15;;;;;;;136.50;17.05;;;;;;;;;;5084040;28;20032;-44
2023/09/09 12:40:46;;;;;;;93.00;11.85;;;;;;;;;;5073164;28;20022;-43
2023/09/09 12:43:13;;;;;;;140.70;13.93;;;;;;;;;;5087979;28;20028;-37
2023/09/09 12:45:51;;;;;;;344.67;40.35;;;;;;;;;;5092344;28;20032;-35
2023/09/09 12:48:18;;;;;;;279.35;25.45;;;;;;;;;;5092293;28;20048;-32
2023/09/09 12:50:45;;;;;;;249.30;27.98;;;;;;;;;;5085112;28;20044;-39
2023/09/09 12:53:13;;;;;;;268.00;28.48;;;;;;;;;;5091905;28;20107;-40
2023/09/09 12:55:41;;;;;;;237.98;24.10;;;;;;;;;;5086844;28;20035;-38
2023/09/09 12:58:08;;;;;;;207.82;22.13;;;;;;;;;;5087366;28;20116;-39
2023/09/09 13:00:35;;;;;;;154.63;17.50;;;;;;;;;;5079232;28;20055;-39
2023/09/09 13:03:03;;;;;;;167.25;18.33;;;;;;;;;;5089088;28;20551;-38
2023/09/09 13:05:30;;;;;;;152.13;16.30;;;;;;;;;;5092695;28;20386;-40
2023/09/09 13:07:57;;;;;;;125.80;12.82;;;;;;;;;;5092631;28;20020;-40
2023/09/09 13:10:25;;;;;;;106.63;10.75;;;;;;;;;;5092595;28;20028;-39
2023/09/09 13:12:54;;;;;;;118.28;13.40;;;;;;;;;;5090886;28;20024;-38
2023/09/09 13:15:22;;;;;;;84.50;10.23;;;;;;;;;;5091547;28;20036;-38
2023/09/09 13:17:49;;;;;;;78.00;10.07;;;;;;;;;;5092196;28;20035;-34
2023/09/09 13:20:17;;;;;;;70.72;8.98;;;;;;;;;;5092449;28;20039;-37
2023/09/09 13:22:43;;;;;;;76.40;8.65;;;;;;;;;;5092336;28;20028;-38
2023/09/09 13:25:10;;;;;;;72.07;8.30;;;;;;;;;;5092074;28;20087;-39
2023/09/09 13:27:38;;;;;;;55.88;7.60;;;;;;;;;;5092266;28;20103;-37
2023/09/09 13:30:05;;;;;;;53.00;5.85;;;;;;;;;;5091825;28;20398;-35
2023/09/09 13:32:32;;;;;;;48.40;6.50;;;;;;;;;;5091367;28;20543;-40
2023/09/09 13:35:00;;;;;;;42.10;5.75;;;;;;;;;;5088445;28;20032;-38
2023/09/09 13:37:28;;;;;;;39.33;5.43;;;;;;;;;;5092029;28;20032;-39
2023/09/09 13:39:55;;;;;;;45.00;6.38;;;;;;;;;;5087617;28;20054;-38
2023/09/09 13:42:22;;;;;;;31.02;4.43;;;;;;;;;;5091947;28;20035;-37
2023/09/09 13:44:49;;;;;;;40.40;5.25;;;;;;;;;;5091795;28;20043;-36
2023/09/09 13:47:16;;;;;;;28.85;4.32;;;;;;;;;;5086282;28;20044;-37
2023/09/09 13:49:44;;;;;;;44.15;4.65;;;;;;;;;;5090331;28;20050;-36
2023/09/09 13:52:11;;;;;;;30.63;4.88;;;;;;;;;;5090739;28;20024;-39
2023/09/09 13:54:38;;;;;;;37.70;4.95;;;;;;;;;;5090735;28;20044;-38
2023/09/09 13:57:06;;;;;;;36.63;4.15;;;;;;;;;;5090821;28;20547;-39
2023/09/09 13:59:34;;;;;;;24.55;3.67;;;;;;;;;;5091539;28;20028;-41
2023/09/09 14:02:02;;;;;;;33.35;4.07;;;;;;;;;;5091016;28;20118;-39
2023/09/09 14:04:29;;;;;;;39.97;4.97;;;;;;;;;;5090620;28;20051;-40
2023/09/09 14:06:56;;;;;;;27.67;3.63;;;;;;;;;;5090148;28;20028;-38
2023/09/09 14:09:26;;;;;;;20.35;3.70;;;;;;;;;;5089358;28;20044;-39
2023/09/09 14:11:53;;;;;;;30.25;4.22;;;;;;;;;;5088542;28;20494;-40
2023/09/09 14:14:20;;;;;;;24.08;3.33;;;;;;;;;;5090170;28;20028;-39
2023/09/09 14:16:47;;;;;;;27.48;3.53;;;;;;;;;;5090473;28;20028;-39
2023/09/09 14:19:14;;;;;;;23.33;3.05;;;;;;;;;;5089794;28;20028;-35
2023/09/09 14:21:41;;;;;;;30.88;4.65;;;;;;;;;;5091126;28;20023;-35
2023/09/09 14:24:08;;;;;;;25.77;3.90;;;;;;;;;;5072953;28;20031;-33
2023/09/09 14:26:35;;;;;;;28.90;3.97;;;;;;;;;;5090833;28;20024;-33
2023/09/09 14:29:02;;;;;;;27.23;4.05;;;;;;;;;;5090876;28;20020;-34